Time;durP1;ratioP1;P1;durP2;ratioP2;P2;SDS_P1;SDS_P2;PMS_P1;PMS_P2;Temp;Humidity;BMP_temperature;BMP_pressure;BME280_temperature;BME280_humidity;BME280_pressure;Samples;Min_cycle;Max_cycle;Signal;HPM_P1;HPM_P2
2022/05/29 00:00:09;;;;;;;10.95;2.72;;;10.00;99.90;;;;;;5085158;28;20033;-79
2022/05/29 00:02:34;;;;;;;11.98;2.85;;;10.00;99.90;;;;;;5113360;28;20040;-80
2022/05/29 00:05:00;;;;;;;7.63;1.95;;;10.00;99.90;;;;;;5079471;28;20043;-80
2022/05/29 00:07:25;;;;;;;15.88;4.32;;;9.90;99.90;;;;;;5095014;28;20051;-79
2022/05/29 00:09:54;;;;;;;12.63;3.88;;;9.90;99.90;;;;;;5094547;28;20031;-79
2022/05/29 00:12:21;;;;;;;7.18;2.83;;;9.90;99.90;;;;;;5091754;28;20032;-79
2022/05/29 00:14:48;;;;;;;13.75;4.55;;;9.90;99.90;;;;;;5115294;28;20084;-79
2022/05/29 00:17:15;;;;;;;9.13;3.05;;;9.90;99.90;;;;;;5114402;28;20053;-79
2022/05/29 00:19:41;;;;;;;7.40;2.25;;;9.90;99.90;;;;;;5092153;28;20054;-79
2022/05/29 00:22:09;;;;;;;9.07;3.60;;;9.80;99.90;;;;;;5094771;28;20039;-78
2022/05/29 00:24:36;;;;;;;7.78;2.50;;;9.80;99.90;;;;;;5096653;28;20040;-79
2022/05/29 00:27:02;;;;;;;10.27;2.80;;;9.70;99.90;;;;;;5114850;28;20051;-79
2022/05/29 00:29:27;;;;;;;8.35;3.90;;;9.70;99.90;;;;;;5099204;28;20031;-78
2022/05/29 00:31:54;;;;;;;11.52;2.95;;;9.70;99.90;;;;;;5094444;28;20036;-78
2022/05/29 00:34:20;;;;;;;9.85;3.70;;;9.70;99.90;;;;;;5096624;28;20036;-79
2022/05/29 00:36:45;;;;;;;7.97;3.00;;;9.60;99.90;;;;;;5093205;28;20044;-79
2022/05/29 00:39:14;;;;;;;11.55;3.45;;;9.60;99.90;;;;;;5107236;28;20036;-78
2022/05/29 00:41:40;;;;;;;11.38;3.20;;;9.60;99.90;;;;;;5098747;28;20118;-79
2022/05/29 00:44:20;;;;;;;13.93;5.32;;;9.50;99.90;;;;;;5078548;28;20083;-79
2022/05/29 00:46:49;;;;;;;16.02;3.85;;;9.50;99.90;;;;;;5094286;28;20064;-79
2022/05/29 00:49:17;;;;;;;6.75;3.05;;;9.50;99.90;;;;;;5094401;28;20539;-80
2022/05/29 00:51:51;;;;;;;12.02;4.80;;;9.50;99.90;;;;;;5104152;28;20507;-80
2022/05/29 00:54:17;;;;;;;13.32;5.80;;;9.40;99.90;;;;;;5109090;28;20051;-79
2022/05/29 00:56:43;;;;;;;10.50;3.80;;;9.40;99.90;;;;;;5094167;28;20099;-79
2022/05/29 00:59:14;;;;;;;14.50;5.63;;;9.40;99.90;;;;;;5093659;28;20032;-79
2022/05/29 01:01:40;;;;;;;9.20;2.13;;;9.50;99.90;;;;;;5094742;28;20054;-79
2022/05/29 01:04:07;;;;;;;10.52;3.05;;;9.50;99.90;;;;;;5076884;28;20429;-80
2022/05/29 01:06:33;;;;;;;15.52;3.13;;;9.60;99.90;;;;;;5084373;28;20541;-79
2022/05/29 01:09:00;;;;;;;9.25;2.05;;;9.60;99.90;;;;;;5084690;28;20036;-79
2022/05/29 01:11:58;;;;;;;6.50;2.47;;;9.60;99.90;;;;;;5090934;28;20077;-79
2022/05/29 01:14:27;;;;;;;7.82;3.22;;;9.70;99.90;;;;;;5090965;28;20071;-80
2022/05/29 01:17:24;;;;;;;10.88;2.45;;;9.70;99.90;;;;;;5089129;28;20082;-81
2022/05/29 01:19:56;;;;;;;;;;;9.70;99.90;;;;;;5076306;28;20129;-81
2022/05/29 01:22:50;;;;;;;7.68;1.50;;;9.70;99.90;;;;;;5057572;28;20011;-81
2022/05/29 01:25:32;;;;;;;10.75;2.70;;;9.70;99.90;;;;;;5098861;28;20044;-82
2022/05/29 01:28:08;;;;;;;11.73;4.25;;;9.60;99.90;;;;;;5119819;28;20036;-81
2022/05/29 01:31:14;;;;;;;7.03;2.25;;;9.60;99.90;;;;;;5120597;28;20036;-81
2022/05/29 01:33:44;;;;;;;8.75;2.80;;;9.50;99.90;;;;;;5022362;28;20046;-81
2022/05/29 01:36:14;;;;;;;9.35;3.03;;;9.40;99.90;;;;;;5102595;28;20044;-80
2022/05/29 01:38:58;;;;;;;8.95;2.78;;;9.40;99.90;;;;;;5118132;28;20052;-80
2022/05/29 01:41:39;;;;;;;9.68;3.80;;;9.40;99.90;;;;;;5096130;28;20036;-81
2022/05/29 01:44:11;;;;;;;7.50;3.72;;;9.40;99.90;;;;;;5116888;28;20434;-80
2022/05/29 01:46:37;;;;;;;9.02;2.97;;;9.40;99.90;;;;;;5096919;28;20040;-80
2022/05/29 01:49:29;;;;;;;7.60;2.42;;;9.40;99.90;;;;;;5094249;28;20105;-80
2022/05/29 01:52:15;;;;;;;13.10;4.85;;;9.40;99.90;;;;;;5097783;28;20111;-80
2022/05/29 01:54:50;;;;;;;8.90;2.72;;;9.40;99.90;;;;;;5095589;28;20047;-79
2022/05/29 01:57:21;;;;;;;10.02;2.88;;;9.40;99.90;;;;;;5093434;28;20429;-79
2022/05/29 01:59:47;;;;;;;12.93;2.83;;;9.40;99.90;;;;;;5097913;28;20044;-80
2022/05/29 02:02:17;;;;;;;6.40;2.58;;;9.40;99.90;;;;;;5103970;28;20043;-79
2022/05/29 02:04:47;;;;;;;9.07;2.97;;;9.40;99.90;;;;;;5088621;28;20044;-80
2022/05/29 02:10:32;;;;;;;12.27;2.30;;;9.40;99.90;;;;;;5094461;28;20047;-80
2022/05/29 02:13:15;;;;;;;8.20;2.35;;;9.40;99.90;;;;;;5073105;28;20044;-80
2022/05/29 02:15:46;;;;;;;13.52;2.63;;;9.40;99.90;;;;;;5093795;28;20039;-81
2022/05/29 02:18:49;;;;;;;7.68;2.53;;;9.40;99.90;;;;;;5079456;28;20075;-80
2022/05/29 02:21:26;;;;;;;8.93;1.73;;;9.40;99.90;;;;;;5109253;28;20043;-79
2022/05/29 02:23:54;;;;;;;9.20;2.15;;;9.40;99.90;;;;;;5102376;28;20043;-78
2022/05/29 02:26:25;;;;;;;9.60;2.65;;;9.40;99.90;;;;;;5093113;28;20032;-79
2022/05/29 02:28:56;;;;;;;10.20;2.38;;;9.40;99.90;;;;;;5093301;28;20093;-80
2022/05/29 02:31:33;;;;;;;9.93;2.20;;;9.40;99.90;;;;;;5084176;28;20029;-80
2022/05/29 02:34:09;;;;;;;16.38;2.97;;;9.40;99.90;;;;;;5087338;28;20066;-81
2022/05/29 02:36:58;;;;;;;9.27;2.17;;;9.40;99.90;;;;;;5097500;28;20062;-81
2022/05/29 02:39:33;;;;;;;9.75;2.53;;;9.40;99.90;;;;;;5104055;28;20043;-81
2022/05/29 02:42:21;;;;;;;11.05;4.53;;;9.40;99.90;;;;;;5112950;28;20044;-81
2022/05/29 02:44:54;;;;;;;6.65;2.45;;;9.40;99.90;;;;;;5091388;28;20085;-82
2022/05/29 02:47:31;;;;;;;9.48;2.58;;;9.40;99.90;;;;;;5101499;28;20052;-82
2022/05/29 02:50:14;;;;;;;12.15;3.25;;;9.30;99.90;;;;;;5104634;28;20043;-81
2022/05/29 02:52:39;;;;;;;6.90;2.85;;;9.30;99.90;;;;;;5107332;28;20028;-82
2022/05/29 02:55:06;;;;;;;9.55;2.65;;;9.20;99.90;;;;;;5097341;28;20065;-82
2022/05/29 02:57:33;;;;;;;9.43;2.97;;;9.20;99.90;;;;;;5099820;28;20043;-82
2022/05/29 03:00:07;;;;;;;9.13;3.70;;;9.20;99.90;;;;;;5080583;28;20411;-83
2022/05/29 03:02:38;;;;;;;7.15;2.45;;;9.20;99.90;;;;;;5098029;28;20047;-82
2022/05/29 03:05:15;;;;;;;5.68;2.72;;;9.20;99.90;;;;;;5114970;28;20046;-82
2022/05/29 03:07:48;;;;;;;6.72;2.95;;;9.20;99.90;;;;;;5097950;28;20039;-82
2022/05/29 03:10:28;;;;;;;14.38;3.67;;;9.20;99.90;;;;;;5107877;28;20081;-82
2022/05/29 03:13:09;;;;;;;8.82;2.95;;;9.20;99.90;;;;;;5094895;28;20036;-82
2022/05/29 03:15:56;;;;;;;8.48;2.80;;;9.20;99.90;;;;;;5099866;28;20040;-82
2022/05/29 03:18:58;;;;;;;9.75;3.33;;;9.20;99.90;;;;;;5079762;28;20054;-83
2022/05/29 03:21:36;;;;;;;12.40;2.80;;;9.20;99.90;;;;;;5029319;28;20048;-83
2022/05/29 03:24:07;;;;;;;8.00;3.85;;;9.20;99.90;;;;;;5096222;28;20040;-83
2022/05/29 03:26:40;;;;;;;13.35;4.55;;;9.20;99.90;;;;;;5097966;28;20052;-83
2022/05/29 03:29:13;;;;;;;10.70;3.10;;;9.20;99.90;;;;;;5103293;28;20455;-83
2022/05/29 03:31:41;;;;;;;11.32;3.40;;;9.20;99.90;;;;;;5078599;28;20054;-83
2022/05/29 03:34:09;;;;;;;11.10;2.90;;;9.30;99.90;;;;;;5094979;28;20079;-83
2022/05/29 03:36:34;;;;;;;11.65;3.30;;;9.20;99.90;;;;;;5094847;28;20467;-83
2022/05/29 03:39:00;;;;;;;11.15;3.10;;;9.20;99.90;;;;;;5095518;28;20047;-84
2022/05/29 03:41:39;;;;;;;9.48;2.45;;;9.30;99.90;;;;;;5078377;28;20044;-84
2022/05/29 03:44:06;;;;;;;14.10;4.55;;;9.30;99.90;;;;;;5075822;28;20036;-83
2022/05/29 03:46:32;;;;;;;10.18;4.43;;;9.30;99.90;;;;;;5076182;28;20040;-84
2022/05/29 03:48:57;;;;;;;11.55;3.65;;;9.30;99.90;;;;;;5077091;28;20123;-83
2022/05/29 03:51:23;;;;;;;13.13;3.17;;;9.30;99.90;;;;;;5074955;28;20097;-84
2022/05/29 03:53:49;;;;;;;14.25;4.13;;;9.30;99.90;;;;;;5088526;28;20042;-84
2022/05/29 03:56:14;;;;;;;10.70;3.63;;;9.30;99.90;;;;;;5088229;28;20040;-83
2022/05/29 03:58:40;;;;;;;11.45;3.15;;;9.40;99.90;;;;;;5088819;28;20040;-84
2022/05/29 04:01:06;;;;;;;10.88;4.53;;;9.40;99.90;;;;;;5071420;28;20127;-83
2022/05/29 04:03:33;;;;;;;9.73;4.22;;;9.40;99.90;;;;;;5086240;28;20143;-83
2022/05/29 04:05:58;;;;;;;9.77;4.00;;;9.40;99.90;;;;;;5082797;28;20041;-83
2022/05/29 04:13:53;;;;;;;14.73;4.00;;;9.40;99.90;;;;;;5073962;28;20080;-82
2022/05/29 04:16:18;;;;;;;14.00;3.08;;;9.40;99.90;;;;;;5093251;28;20064;-82
2022/05/29 04:18:44;;;;;;;10.70;3.17;;;9.50;99.90;;;;;;5093291;28;20054;-83
2022/05/29 04:21:10;;;;;;;11.35;2.33;;;9.50;99.90;;;;;;5093937;28;20430;-83
2022/05/29 04:23:36;;;;;;;8.90;2.80;;;9.60;99.90;;;;;;5074199;28;20040;-83
2022/05/29 04:26:02;;;;;;;12.02;3.28;;;9.60;99.90;;;;;;5089827;28;20059;-82
2022/05/29 04:28:28;;;;;;;11.65;3.30;;;9.60;99.90;;;;;;5086548;28;20032;-83
2022/05/29 04:30:54;;;;;;;10.27;2.67;;;9.60;99.90;;;;;;5091528;28;20028;-82
2022/05/29 04:33:19;;;;;;;12.23;2.85;;;9.70;99.90;;;;;;5089834;28;20028;-82
2022/05/29 04:35:50;;;;;;;6.60;2.63;;;9.70;99.90;;;;;;5088139;28;20093;-81
2022/05/29 04:38:17;;;;;;;13.07;2.60;;;9.70;99.90;;;;;;5090286;28;20040;-82
2022/05/29 04:40:43;;;;;;;15.10;3.15;;;9.80;99.90;;;;;;5091765;28;20036;-81
2022/05/29 04:43:13;;;;;;;9.80;1.80;;;9.80;99.90;;;;;;5087315;28;20115;-82
2022/05/29 04:45:40;;;;;;;10.73;2.75;;;9.80;99.90;;;;;;5089230;28;20051;-82
2022/05/29 04:48:07;;;;;;;8.18;1.88;;;9.80;99.90;;;;;;5066193;28;20033;-82
2022/05/29 04:50:33;;;;;;;12.65;3.35;;;9.80;99.90;;;;;;5074188;28;20040;-82
2022/05/29 04:52:58;;;;;;;8.60;2.10;;;9.80;99.90;;;;;;5091900;28;20046;-82
2022/05/29 04:55:24;;;;;;;9.85;2.17;;;9.80;99.90;;;;;;5059854;28;20067;-81
2022/05/29 04:57:50;;;;;;;7.45;2.58;;;9.90;99.90;;;;;;5078081;28;20046;-82
2022/05/29 05:00:16;;;;;;;7.93;1.73;;;9.90;99.90;;;;;;5099265;28;20043;-81
2022/05/29 05:02:42;;;;;;;9.23;1.95;;;9.90;99.90;;;;;;5091701;28;20085;-81
2022/05/29 05:05:09;;;;;;;5.65;1.60;;;9.90;99.90;;;;;;5093575;28;20051;-81
2022/05/29 05:07:35;;;;;;;12.18;1.98;;;9.90;99.90;;;;;;5093612;28;20471;-81
2022/05/29 05:10:03;;;;;;;11.88;2.22;;;9.90;99.90;;;;;;5092946;28;20032;-82
2022/05/29 05:12:28;;;;;;;8.50;1.77;;;9.90;99.90;;;;;;5082754;28;20065;-81
2022/05/29 05:14:54;;;;;;;10.43;2.00;;;9.90;99.90;;;;;;5101646;28;20115;-81
2022/05/29 05:17:19;;;;;;;9.20;1.92;;;9.90;99.90;;;;;;5099187;28;20069;-81
2022/05/29 05:19:45;;;;;;;10.48;2.47;;;9.90;99.90;;;;;;5076591;28;20043;-81
2022/05/29 05:22:10;;;;;;;5.80;2.58;;;9.90;99.90;;;;;;5075382;28;20047;-81
2022/05/29 05:24:37;;;;;;;9.63;1.55;;;10.00;99.90;;;;;;5093093;28;20036;-81
2022/05/29 05:27:05;;;;;;;13.13;2.20;;;10.00;99.90;;;;;;5089918;28;20078;-81
2022/05/29 05:29:31;;;;;;;8.98;1.42;;;10.00;99.90;;;;;;5092570;28;20040;-81
2022/05/29 05:31:56;;;;;;;9.20;1.52;;;10.10;99.90;;;;;;5094307;28;20138;-81
2022/05/29 05:34:22;;;;;;;10.82;1.67;;;10.10;99.90;;;;;;5077941;28;20461;-81
2022/05/29 05:36:48;;;;;;;9.82;2.28;;;10.10;99.90;;;;;;5091719;28;20040;-81
2022/05/29 05:39:14;;;;;;;8.00;1.60;;;10.10;99.90;;;;;;5092245;28;20036;-81
2022/05/29 05:41:39;;;;;;;8.35;1.77;;;10.20;99.90;;;;;;5092146;28;20043;-81
2022/05/29 05:44:05;;;;;;;8.15;1.45;;;10.20;99.90;;;;;;5072040;28;20036;-81
2022/05/29 05:46:31;;;;;;;6.30;1.30;;;10.30;99.90;;;;;;5089584;28;20096;-81
2022/05/29 05:48:57;;;;;;;7.38;1.42;;;10.30;99.90;;;;;;5091848;28;20054;-81
2022/05/29 05:51:23;;;;;;;6.20;1.15;;;10.40;99.90;;;;;;5075751;28;20044;-81
2022/05/29 05:53:49;;;;;;;10.38;2.00;;;10.50;99.90;;;;;;5091924;28;20122;-81
2022/05/29 05:56:17;;;;;;;9.38;2.30;;;10.60;99.90;;;;;;5091344;28;20127;-81
2022/05/29 05:58:43;;;;;;;9.07;1.42;;;10.70;99.90;;;;;;5092103;28;20036;-81
2022/05/29 06:01:15;;;;;;;7.78;3.17;;;10.80;99.90;;;;;;5097282;28;20455;-81
2022/05/29 06:03:41;;;;;;;12.30;1.45;;;10.90;99.90;;;;;;5109376;28;20035;-81
2022/05/29 06:06:07;;;;;;;7.40;1.48;;;10.90;99.90;;;;;;5075739;28;20039;-81
2022/05/29 06:08:34;;;;;;;10.70;2.38;;;11.00;99.90;;;;;;5114987;28;20047;-81
2022/05/29 06:10:59;;;;;;;13.50;1.95;;;11.00;99.90;;;;;;5111548;28;20051;-80
2022/05/29 06:13:25;;;;;;;9.30;1.88;;;11.00;99.90;;;;;;5108032;28;20032;-80
2022/05/29 06:15:51;;;;;;;8.30;1.17;;;11.00;99.90;;;;;;5110765;28;20035;-80
2022/05/29 06:18:17;;;;;;;9.35;1.65;;;11.00;99.90;;;;;;5112781;28;20093;-81
2022/05/29 06:20:46;;;;;;;10.88;1.20;;;11.00;99.90;;;;;;5116998;28;20099;-81
2022/05/29 06:23:13;;;;;;;11.73;1.52;;;11.10;99.90;;;;;;5079717;28;20368;-81
2022/05/29 06:25:39;;;;;;;9.00;1.20;;;11.00;99.90;;;;;;5087345;28;20040;-81
2022/05/29 06:28:06;;;;;;;8.98;1.60;;;11.00;99.90;;;;;;5103392;28;20036;-81
2022/05/29 06:30:31;;;;;;;5.93;1.00;;;11.00;99.90;;;;;;5105240;28;20040;-80
2022/05/29 06:32:57;;;;;;;11.23;2.05;;;11.00;99.90;;;;;;5114152;28;20123;-80
2022/05/29 06:35:23;;;;;;;11.57;2.15;;;11.00;99.90;;;;;;5084776;28;20035;-80
2022/05/29 06:37:49;;;;;;;9.25;1.50;;;10.90;99.90;;;;;;5099604;28;20513;-80
2022/05/29 06:40:15;;;;;;;6.60;1.50;;;11.00;99.90;;;;;;5099384;28;20028;-80
2022/05/29 06:42:41;;;;;;;6.00;1.48;;;11.10;99.90;;;;;;5099368;28;20078;-80
2022/05/29 06:45:09;;;;;;;10.48;1.42;;;11.20;99.90;;;;;;5096101;28;20028;-81
2022/05/29 06:47:34;;;;;;;10.00;1.38;;;11.30;99.90;;;;;;5093748;28;20055;-80
2022/05/29 06:50:01;;;;;;;8.65;1.67;;;11.30;99.90;;;;;;5092520;28;20044;-80
2022/05/29 06:52:31;;;;;;;6.22;1.38;;;11.40;99.90;;;;;;5104023;27;20044;-80
2022/05/29 06:54:57;;;;;;;8.50;1.20;;;11.40;99.90;;;;;;5093303;28;20437;-81
2022/05/29 06:57:40;;;;;;;10.20;1.10;;;11.40;99.90;;;;;;5088482;28;20047;-79
2022/05/29 07:08:32;;;;;;;7.78;2.65;;;11.50;99.90;;;;;;5091390;28;20048;-80
2022/05/29 07:11:09;;;;;;;12.52;2.75;;;11.60;99.90;;;;;;5085358;28;20040;-79
2022/05/29 07:13:35;;;;;;;10.63;1.65;;;11.60;99.90;;;;;;5093412;28;20036;-79
2022/05/29 07:16:01;;;;;;;6.43;0.77;;;11.70;99.90;;;;;;5089776;28;20040;-79
2022/05/29 07:18:29;;;;;;;6.93;1.92;;;11.70;99.90;;;;;;5072991;28;20093;-79
2022/05/29 07:20:57;;;;;;;9.57;2.80;;;11.80;99.90;;;;;;5070769;28;20036;-80
2022/05/29 07:23:23;;;;;;;7.07;1.00;;;11.80;99.90;;;;;;5075357;28;20048;-79
2022/05/29 07:25:48;;;;;;;11.18;1.77;;;11.80;99.90;;;;;;5088052;28;20040;-79
2022/05/29 07:28:14;;;;;;;14.02;1.90;;;11.70;99.90;;;;;;5088600;28;20032;-79
2022/05/29 07:30:40;;;;;;;6.75;1.25;;;11.60;99.90;;;;;;5095887;28;20040;-79
2022/05/29 07:33:05;;;;;;;10.50;1.60;;;11.50;99.90;;;;;;5093739;28;20040;-79
2022/05/29 07:35:31;;;;;;;7.38;0.65;;;11.50;99.90;;;;;;5093515;28;20664;-80
2022/05/29 07:37:57;;;;;;;7.72;1.02;;;11.50;99.90;;;;;;5095158;28;20040;-79
2022/05/29 07:40:23;;;;;;;6.90;0.65;;;11.60;99.90;;;;;;5093835;28;20044;-79
2022/05/29 07:45:33;;;;;;;4.68;0.70;;;11.60;99.90;;;;;;5094389;28;20201;-79
2022/05/29 07:47:59;;;;;;;4.55;1.48;;;11.60;99.90;;;;;;5098670;28;20104;-79
2022/05/29 07:50:25;;;;;;;4.43;0.55;;;11.70;99.90;;;;;;5093606;28;20024;-79
2022/05/29 07:52:52;;;;;;;5.80;1.15;;;11.70;99.90;;;;;;5093809;28;20036;-79
2022/05/29 07:55:18;;;;;;;4.72;0.50;;;11.70;99.90;;;;;;5072250;28;20115;-79
2022/05/29 07:57:45;;;;;;;4.93;1.00;;;11.70;99.90;;;;;;5090919;28;20036;-79
2022/05/29 08:00:14;;;;;;;8.15;1.33;;;11.80;99.90;;;;;;5091446;28;20059;-79
2022/05/29 08:02:39;;;;;;;6.70;0.63;;;11.80;99.90;;;;;;5075398;28;20028;-79
2022/05/29 08:05:07;;;;;;;2.47;0.40;;;11.90;99.90;;;;;;5088127;28;20143;-79
2022/05/29 08:07:33;;;;;;;4.00;0.57;;;11.90;99.90;;;;;;5075023;22;20060;-79
2022/05/29 08:09:59;;;;;;;3.50;1.10;;;11.80;99.90;;;;;;5054039;28;20414;-80
2022/05/29 08:12:24;;;;;;;4.18;0.30;;;11.80;99.90;;;;;;5050934;28;20036;-79
2022/05/29 08:14:50;;;;;;;2.20;0.25;;;11.70;99.90;;;;;;5050238;28;20035;-79
2022/05/29 08:17:15;;;;;;;3.30;0.30;;;11.60;99.90;;;;;;5041062;28;20075;-79
2022/05/29 08:19:41;;;;;;;4.13;0.50;;;11.40;99.90;;;;;;5053668;28;20051;-79
2022/05/29 08:22:07;;;;;;;4.82;0.50;;;11.40;99.90;;;;;;5050935;28;20202;-78
2022/05/29 08:30:59;;;;;;;12.82;5.05;;;11.50;99.90;;;;;;5051427;28;20049;-79
2022/05/29 08:33:09;;;;;;;428.38;293.80;;;11.60;99.90;;;;;;5040857;28;20518;-79
2022/05/29 08:35:36;;;;;;;146.82;114.10;;;11.60;99.90;;;;;;5032993;28;20055;-79
2022/05/29 08:38:04;;;;;;;6.05;2.20;;;11.80;99.90;;;;;;5050467;28;20040;-78
2022/05/29 08:40:31;;;;;;;7.15;1.10;;;12.00;99.90;;;;;;5053841;28;20095;-79
2022/05/29 08:42:57;;;;;;;9.13;0.93;;;12.20;99.90;;;;;;5034231;28;20737;-79
2022/05/29 08:45:23;;;;;;;2.33;0.32;;;12.20;99.90;;;;;;5049220;28;20483;-79
2022/05/29 08:47:50;;;;;;;8.07;0.50;;;12.30;99.90;;;;;;5047170;28;20046;-79
2022/05/29 08:50:22;;;;;;;3.55;0.40;;;12.50;99.90;;;;;;5048179;28;20510;-79
2022/05/29 08:53:00;;;;;;;2.47;0.30;;;12.50;99.90;;;;;;5032586;28;20041;-79
2022/05/29 08:55:42;;;;;;;4.85;0.22;;;12.40;99.90;;;;;;5047397;28;20137;-79
2022/05/29 08:58:32;;;;;;;3.63;0.40;;;12.50;99.90;;;;;;5048380;28;20094;-79
2022/05/29 09:01:18;;;;;;;3.50;0.20;;;12.50;99.90;;;;;;5049390;28;20115;-79
2022/05/29 09:04:00;;;;;;;1.98;0.30;;;12.50;99.90;;;;;;5031608;28;20040;-79
2022/05/29 09:06:47;;;;;;;1.95;0.30;;;12.40;99.90;;;;;;5048514;28;20045;-78
2022/05/29 09:09:36;;;;;;;5.47;0.63;;;12.40;99.90;;;;;;5038988;28;20090;-78
2022/05/29 09:12:10;;;;;;;1.52;0.75;;;12.20;99.90;;;;;;5041030;28;20044;-79
2022/05/29 09:14:58;;;;;;;2.47;0.32;;;11.80;99.90;;;;;;5050293;28;20037;-79
2022/05/29 09:17:39;;;;;;;4.80;0.80;;;11.60;99.90;;;;;;5050955;28;20459;-79
2022/05/29 09:20:31;;;;;;;3.35;0.55;;;11.60;99.90;;;;;;5049967;28;20100;-80
2022/05/29 09:22:59;;;;;;;3.00;0.40;;;11.60;99.90;;;;;;5048729;28;20040;-79
2022/05/29 09:25:40;;;;;;;3.03;0.20;;;11.70;99.90;;;;;;5048302;28;20707;-79
2022/05/29 09:28:11;;;;;;;4.47;0.77;;;11.90;99.90;;;;;;5049089;28;20045;-79
2022/05/29 09:30:40;;;;;;;4.03;0.40;;;12.00;99.90;;;;;;5048533;28;20041;-79
2022/05/29 09:33:25;;;;;;;2.33;0.38;;;12.30;99.90;;;;;;5048062;28;20037;-79
2022/05/29 09:36:08;;;;;;;2.72;0.20;;;12.60;99.90;;;;;;5047812;28;20033;-79
2022/05/29 09:38:53;;;;;;;5.60;0.73;;;12.90;99.90;;;;;;5048987;28;20055;-79
2022/05/29 09:41:29;;;;;;;2.75;0.88;;;13.20;99.90;;;;;;5049018;28;20063;-79
2022/05/29 09:44:15;;;;;;;4.35;0.20;;;13.50;99.90;;;;;;5029712;28;20025;-79
2022/05/29 09:46:44;;;;;;;3.75;0.57;;;13.70;99.90;;;;;;5047585;28;20036;-79
2022/05/29 09:49:42;;;;;;;2.22;0.30;;;13.70;99.90;;;;;;5049474;28;20178;-79
2022/05/29 09:52:22;;;;;;;95.60;63.63;;;13.60;99.90;;;;;;5048851;28;20048;-79
2022/05/29 09:54:57;;;;;;;21.23;11.48;;;13.60;99.90;;;;;;5067970;28;20116;-78
2022/05/29 09:57:31;;;;;;;;;;;13.50;99.90;;;;;;5048952;28;20175;-79
2022/05/29 10:00:02;;;;;;;12.60;5.72;;;13.40;99.90;;;;;;5049661;28;19917;-78
2022/05/29 10:02:40;;;;;;;10.65;4.85;;;13.10;99.90;;;;;;5043624;28;20168;-78
2022/05/29 10:05:19;;;;;;;2.70;1.10;;;12.80;99.90;;;;;;5053123;28;20135;-79
2022/05/29 10:07:47;;;;;;;1.70;0.20;;;12.40;99.90;;;;;;5045336;28;20048;-79
2022/05/29 10:10:27;;;;;;;4.43;0.45;;;12.20;99.90;;;;;;5053731;28;20080;-78
2022/05/29 10:12:57;;;;;;;3.67;0.30;;;12.20;99.90;;;;;;5053714;28;20033;-79
2022/05/29 10:15:25;;;;;;;5.22;0.65;;;12.10;99.90;;;;;;5053454;28;20070;-79
2022/05/29 10:17:58;;;;;;;3.00;0.60;;;12.10;99.90;;;;;;5053118;28;20036;-79
2022/05/29 10:20:31;;;;;;;3.50;0.35;;;12.20;99.90;;;;;;5049865;28;20052;-78
2022/05/29 10:22:59;;;;;;;3.03;0.68;;;12.40;99.90;;;;;;5042827;28;20041;-79
2022/05/29 10:25:32;;;;;;;6.72;0.70;;;12.70;99.90;;;;;;5033292;28;20076;-79
2022/05/29 10:28:01;;;;;;;1.92;0.28;;;13.00;99.90;;;;;;5046021;28;20067;-78
2022/05/29 10:30:31;;;;;;;4.90;0.35;;;13.30;99.90;;;;;;5034295;28;20033;-78
2022/05/29 10:33:22;;;;;;;4.10;0.30;;;13.60;99.90;;;;;;5047363;28;20060;-78
2022/05/29 10:35:49;;;;;;;7.25;1.17;;;13.60;99.90;;;;;;5048377;28;20056;-78
2022/05/29 10:38:27;;;;;;;5.07;0.30;;;13.90;99.90;;;;;;5054148;28;20037;-79
2022/05/29 10:40:59;;;;;;;2.38;0.73;;;14.00;99.90;;;;;;5043935;28;20040;-78
2022/05/29 10:43:45;;;;;;;2.88;0.30;;;14.00;99.90;;;;;;5044412;28;20480;-78
2022/05/29 10:46:10;;;;;;;3.58;0.20;;;14.00;99.90;;;;;;5054200;28;20107;-79
2022/05/29 10:49:04;;;;;;;3.20;0.22;;;14.20;99.90;;;;;;5055667;28;20483;-79
2022/05/29 10:51:41;;;;;;;6.38;1.08;;;14.50;99.90;;;;;;5053311;28;20041;-79
2022/05/29 10:54:32;;;;;;;3.90;0.25;;;14.70;99.90;;;;;;5044236;28;20472;-78
2022/05/29 10:57:42;;;;;;;3.30;0.38;;;14.60;99.90;;;;;;5034518;28;20091;-78
2022/05/29 11:00:14;;;;;;;6.60;0.40;;;14.50;99.90;;;;;;4989964;28;20470;-78
2022/05/29 11:03:19;;;;;;;2.42;0.20;;;14.20;99.90;;;;;;5033244;28;20377;-78
2022/05/29 11:06:13;;;;;;;4.03;0.20;;;14.00;99.90;;;;;;5032542;28;20049;-79
2022/05/29 11:08:54;;;;;;;3.58;0.35;;;13.80;99.90;;;;;;5037570;28;20533;-78
2022/05/29 11:11:32;;;;;;;3.70;0.20;;;13.80;99.90;;;;;;5050168;28;20112;-78
2022/05/29 11:14:10;;;;;;;9.98;6.43;;;13.80;99.90;;;;;;5032186;28;20145;-77
2022/05/29 11:17:11;;;;;;;7.55;0.30;;;13.80;99.90;;;;;;5032219;28;20052;-78
2022/05/29 11:20:02;;;;;;;2.17;0.30;;;13.90;99.90;;;;;;5051211;28;20044;-78
2022/05/29 11:22:56;;;;;;;2.72;0.30;;;14.00;99.90;;;;;;5051257;28;20097;-78
2022/05/29 11:25:40;;;;;;;3.75;0.88;;;14.00;99.90;;;;;;5050330;28;20212;-77
2022/05/29 11:28:28;;;;;;;3.42;0.40;;;14.00;99.90;;;;;;5084241;22;20462;-77
2022/05/29 11:31:16;;;;;;;5.13;0.38;;;14.10;99.90;;;;;;5064003;28;20056;-77
2022/05/29 11:34:12;;;;;;;3.47;0.38;;;14.10;99.90;;;;;;5094964;28;20502;-79
2022/05/29 11:37:12;;;;;;;2.00;0.40;;;13.90;99.90;;;;;;5058226;28;20618;-78
2022/05/29 11:39:47;;;;;;;3.15;0.60;;;13.70;99.90;;;;;;5030410;28;20117;-78
2022/05/29 11:42:25;;;;;;;63.75;37.25;;;13.40;99.90;;;;;;5075504;28;21563;-77
2022/05/29 11:51:07;;;;;;;80.10;43.58;;;13.00;99.90;;;;;;5072792;28;20459;-77
2022/05/29 11:51:16;;;;;;;14.10;4.00;;;12.50;99.90;;;;;;5072588;28;20490;-76
2022/05/29 11:54:01;;;;;;;23.17;11.10;;;12.50;99.90;;;;;;5073104;28;20337;-77
2022/05/29 11:56:34;;;;;;;7.63;0.95;;;12.80;99.90;;;;;;5071928;28;20164;-77
2022/05/29 11:59:38;;;;;;;7.47;0.93;;;13.30;99.90;;;;;;5077538;28;20536;-77
2022/05/29 12:02:31;;;;;;;1.77;0.30;;;13.70;99.90;;;;;;5043505;28;20052;-77
2022/05/29 12:05:12;;;;;;;3.63;0.35;;;13.90;99.90;;;;;;5073881;28;20510;-77
2022/05/29 12:07:48;;;;;;;3.65;0.35;;;14.20;99.90;;;;;;5077440;28;20422;-78
2022/05/29 12:10:17;;;;;;;;;;;14.40;99.90;;;;;;5070268;28;20060;-77
2022/05/29 12:12:47;;;;;;;5.22;0.40;;;14.20;99.90;;;;;;5076578;28;19942;-77
2022/05/29 12:15:18;;;;;;;4.72;0.50;;;14.00;99.90;;;;;;5075620;28;20071;-77
2022/05/29 12:17:52;;;;;;;4.93;0.35;;;13.80;99.90;;;;;;5077286;28;20068;-77
2022/05/29 12:20:20;;;;;;;4.53;1.83;;;13.70;99.90;;;;;;5073855;28;20040;-77
2022/05/29 12:22:49;;;;;;;3.60;0.20;;;13.70;99.90;;;;;;5089606;28;20073;-77
2022/05/29 12:25:47;;;;;;;2.20;0.25;;;13.60;99.90;;;;;;5066517;28;20052;-77
2022/05/29 12:28:25;;;;;;;3.75;0.65;;;13.70;99.90;;;;;;5056989;28;20055;-77
2022/05/29 12:30:53;;;;;;;3.67;0.60;;;14.00;99.90;;;;;;5070652;28;20507;-76
2022/05/29 12:33:23;;;;;;;4.07;0.40;;;14.20;99.90;;;;;;5070439;28;20048;-77
2022/05/29 12:35:57;;;;;;;3.40;0.47;;;14.20;99.90;;;;;;5070792;28;20102;-77
2022/05/29 12:38:34;;;;;;;3.80;0.50;;;14.10;99.90;;;;;;5087590;28;20044;-77
2022/05/29 12:41:07;;;;;;;4.38;0.55;;;14.10;99.90;;;;;;5053862;28;20040;-76
2022/05/29 12:43:58;;;;;;;2.88;0.30;;;14.10;99.90;;;;;;5068808;28;20060;-77
2022/05/29 12:46:33;;;;;;;3.90;0.38;;;14.10;99.90;;;;;;5070445;28;20037;-76
2022/05/29 12:48:58;;;;;;;8.25;0.50;;;13.80;99.90;;;;;;5070609;28;20418;-77
2022/05/29 12:51:45;;;;;;;4.00;0.65;;;13.70;99.90;;;;;;5070521;28;20040;-78
2022/05/29 12:54:30;;;;;;;6.97;0.68;;;13.40;99.90;;;;;;5070558;28;20044;-78
2022/05/29 12:57:41;;;;;;;3.35;0.50;;;13.10;99.90;;;;;;5070429;28;20044;-78
2022/05/29 13:00:44;;;;;;;4.65;0.38;;;12.60;99.90;;;;;;5032345;28;20126;-78
2022/05/29 13:03:35;;;;;;;4.47;0.63;;;12.20;99.90;;;;;;5050649;28;20236;-79
2022/05/29 13:06:25;;;;;;;4.85;0.57;;;12.00;99.90;;;;;;5050440;28;20072;-79
2022/05/29 13:09:18;;;;;;;6.65;1.33;;;11.90;99.90;;;;;;5053647;28;20102;-79
2022/05/29 13:12:00;;;;;;;6.38;3.03;;;11.80;99.90;;;;;;5060567;28;20037;-79
2022/05/29 13:14:27;;;;;;;3.70;0.60;;;11.80;99.90;;;;;;5070542;28;20063;-79
2022/05/29 13:17:08;;;;;;;4.88;1.88;;;11.80;99.90;;;;;;5070446;28;20449;-78
2022/05/29 13:20:14;;;;;;;5.07;1.92;;;11.90;99.90;;;;;;5070500;28;20079;-79
2022/05/29 13:23:01;;;;;;;2.67;0.68;;;12.10;99.90;;;;;;5030675;28;20457;-78
2022/05/29 13:25:49;;;;;;;4.05;0.45;;;11.90;99.90;;;;;;5069982;28;20106;-78
2022/05/29 13:28:49;;;;;;;2.42;0.45;;;11.70;99.90;;;;;;5084520;28;20244;-78
2022/05/29 13:31:17;;;;;;;3.03;0.35;;;11.30;99.90;;;;;;5074164;28;20364;-78
2022/05/29 13:33:42;;;;;;;5.65;2.63;;;11.20;99.90;;;;;;5083296;28;20064;-78
2022/05/29 13:36:09;;;;;;;8.60;2.90;;;11.30;99.90;;;;;;5084597;28;20486;-77
2022/05/29 13:38:43;;;;;;;3.58;0.90;;;11.50;99.90;;;;;;5080633;28;20048;-77
2022/05/29 13:41:24;;;;;;;5.25;1.90;;;11.70;99.90;;;;;;5074446;28;20047;-77
2022/05/29 13:43:49;;;;;;;3.08;0.50;;;12.10;99.90;;;;;;5069398;28;20111;-77
2022/05/29 13:46:26;;;;;;;3.55;0.60;;;12.50;99.90;;;;;;5069070;28;20040;-77
2022/05/29 13:49:07;;;;;;;2.10;0.50;;;12.80;99.90;;;;;;5073353;28;20047;-77